sensor_id;sensor_type;location;lat;lon;timestamp;P1;durP1;ratioP1;P2;durP2;ratioP2
7729;SDS011;3908;52.310;7.230;2023-05-27T00:01:34;23.20;;;6.07;;
7729;SDS011;3908;52.310;7.230;2023-05-27T00:04:20;17.17;;;7.10;;
7729;SDS011;3908;52.310;7.230;2023-05-27T00:07:09;17.53;;;6.57;;
7729;SDS011;3908;52.310;7.230;2023-05-27T00:09:56;18.63;;;6.10;;
7729;SDS011;3908;52.310;7.230;2023-05-27T00:12:43;24.97;;;6.23;;
7729;SDS011;3908;52.310;7.230;2023-05-27T00:15:29;19.90;;;6.80;;
7729;SDS011;3908;52.310;7.230;2023-05-27T00:18:16;19.07;;;6.27;;
7729;SDS011;3908;52.310;7.230;2023-05-27T00:21:03;20.40;;;6.70;;
7729;SDS011;3908;52.310;7.230;2023-05-27T00:23:52;15.00;;;6.90;;
7729;SDS011;3908;52.310;7.230;2023-05-27T00:26:38;18.10;;;6.93;;
7729;SDS011;3908;52.310;7.230;2023-05-27T00:29:25;19.77;;;7.07;;
7729;SDS011;3908;52.310;7.230;2023-05-27T00:32:12;17.30;;;6.53;;
7729;SDS011;3908;52.310;7.230;2023-05-27T00:34:59;21.33;;;6.77;;
7729;SDS011;3908;52.310;7.230;2023-05-27T00:37:45;10.33;;;6.07;;
7729;SDS011;3908;52.310;7.230;2023-05-27T00:40:34;14.20;;;6.50;;
7729;SDS011;3908;52.310;7.230;2023-05-27T00:43:21;27.20;;;6.67;;
7729;SDS011;3908;52.310;7.230;2023-05-27T00:46:08;18.97;;;6.67;;
7729;SDS011;3908;52.310;7.230;2023-05-27T00:48:55;24.60;;;6.30;;
7729;SDS011;3908;52.310;7.230;2023-05-27T00:51:41;18.87;;;5.93;;
7729;SDS011;3908;52.310;7.230;2023-05-27T00:54:29;21.27;;;6.73;;
7729;SDS011;3908;52.310;7.230;2023-05-27T00:57:18;18.77;;;5.90;;
7729;SDS011;3908;52.310;7.230;2023-05-27T01:00:07;12.13;;;5.07;;
7729;SDS011;3908;52.310;7.230;2023-05-27T01:02:56;24.63;;;5.30;;
7729;SDS011;3908;52.310;7.230;2023-05-27T01:05:43;20.93;;;6.40;;
7729;SDS011;3908;52.310;7.230;2023-05-27T01:08:31;16.73;;;5.47;;
7729;SDS011;3908;52.310;7.230;2023-05-27T01:11:21;12.05;;;5.25;;
7729;SDS011;3908;52.310;7.230;2023-05-27T01:14:12;17.50;;;5.90;;
7729;SDS011;3908;52.310;7.230;2023-05-27T01:16:59;16.03;;;5.10;;
7729;SDS011;3908;52.310;7.230;2023-05-27T01:19:48;15.43;;;5.50;;
7729;SDS011;3908;52.310;7.230;2023-05-27T01:22:37;10.03;;;5.00;;
7729;SDS011;3908;52.310;7.230;2023-05-27T01:25:26;12.53;;;4.67;;
7729;SDS011;3908;52.310;7.230;2023-05-27T01:28:14;14.33;;;4.77;;
7729;SDS011;3908;52.310;7.230;2023-05-27T01:31:01;15.50;;;4.27;;
7729;SDS011;3908;52.310;7.230;2023-05-27T01:33:49;13.60;;;5.03;;
7729;SDS011;3908;52.310;7.230;2023-05-27T01:36:40;11.13;;;4.80;;
7729;SDS011;3908;52.310;7.230;2023-05-27T01:39:31;17.57;;;5.67;;
7729;SDS011;3908;52.310;7.230;2023-05-27T01:42:18;13.47;;;5.17;;
7729;SDS011;3908;52.310;7.230;2023-05-27T01:45:06;11.93;;;5.10;;
7729;SDS011;3908;52.310;7.230;2023-05-27T01:47:53;12.97;;;5.07;;
7729;SDS011;3908;52.310;7.230;2023-05-27T01:50:40;12.57;;;5.37;;
7729;SDS011;3908;52.310;7.230;2023-05-27T01:53:27;17.43;;;5.83;;
7729;SDS011;3908;52.310;7.230;2023-05-27T01:56:15;12.43;;;5.50;;
7729;SDS011;3908;52.310;7.230;2023-05-27T01:59:02;13.57;;;5.97;;
7729;SDS011;3908;52.310;7.230;2023-05-27T02:01:49;13.33;;;5.67;;
7729;SDS011;3908;52.310;7.230;2023-05-27T02:04:37;21.17;;;5.57;;
7729;SDS011;3908;52.310;7.230;2023-05-27T02:07:24;19.83;;;5.60;;
7729;SDS011;3908;52.310;7.230;2023-05-27T02:10:12;12.57;;;5.37;;
7729;SDS011;3908;52.310;7.230;2023-05-27T02:13:00;24.93;;;6.27;;
7729;SDS011;3908;52.310;7.230;2023-05-27T02:15:47;18.30;;;5.30;;
7729;SDS011;3908;52.310;7.230;2023-05-27T02:18:33;17.80;;;6.27;;
7729;SDS011;3908;52.310;7.230;2023-05-27T02:21:20;16.00;;;6.00;;
7729;SDS011;3908;52.310;7.230;2023-05-27T02:24:07;19.10;;;5.87;;
7729;SDS011;3908;52.310;7.230;2023-05-27T02:26:54;14.20;;;4.67;;
7729;SDS011;3908;52.310;7.230;2023-05-27T02:29:42;14.97;;;5.40;;
7729;SDS011;3908;52.310;7.230;2023-05-27T02:32:29;15.87;;;4.53;;
7729;SDS011;3908;52.310;7.230;2023-05-27T02:35:16;15.50;;;5.47;;
7729;SDS011;3908;52.310;7.230;2023-05-27T02:38:03;12.83;;;5.10;;
7729;SDS011;3908;52.310;7.230;2023-05-27T02:40:50;19.10;;;5.17;;
7729;SDS011;3908;52.310;7.230;2023-05-27T02:43:37;20.43;;;6.67;;
7729;SDS011;3908;52.310;7.230;2023-05-27T02:46:25;16.17;;;5.13;;
7729;SDS011;3908;52.310;7.230;2023-05-27T02:49:12;19.77;;;5.80;;
7729;SDS011;3908;52.310;7.230;2023-05-27T02:52:00;21.17;;;5.73;;
7729;SDS011;3908;52.310;7.230;2023-05-27T02:54:47;12.07;;;5.37;;
7729;SDS011;3908;52.310;7.230;2023-05-27T02:57:33;17.27;;;6.60;;
7729;SDS011;3908;52.310;7.230;2023-05-27T03:00:20;16.87;;;5.90;;
7729;SDS011;3908;52.310;7.230;2023-05-27T03:03:08;18.53;;;5.90;;
7729;SDS011;3908;52.310;7.230;2023-05-27T03:05:55;20.27;;;6.27;;
7729;SDS011;3908;52.310;7.230;2023-05-27T03:08:42;20.67;;;6.73;;
7729;SDS011;3908;52.310;7.230;2023-05-27T03:11:29;25.37;;;7.07;;
7729;SDS011;3908;52.310;7.230;2023-05-27T03:14:15;15.07;;;7.13;;
7729;SDS011;3908;52.310;7.230;2023-05-27T03:17:02;25.00;;;8.43;;
7729;SDS011;3908;52.310;7.230;2023-05-27T03:19:50;22.90;;;8.70;;
7729;SDS011;3908;52.310;7.230;2023-05-27T03:22:37;23.83;;;9.87;;
7729;SDS011;3908;52.310;7.230;2023-05-27T03:25:24;25.90;;;11.03;;
7729;SDS011;3908;52.310;7.230;2023-05-27T03:28:11;24.80;;;9.90;;
7729;SDS011;3908;52.310;7.230;2023-05-27T03:30:58;19.67;;;9.27;;
7729;SDS011;3908;52.310;7.230;2023-05-27T03:33:44;19.23;;;7.47;;
7729;SDS011;3908;52.310;7.230;2023-05-27T03:36:33;19.20;;;7.57;;
7729;SDS011;3908;52.310;7.230;2023-05-27T03:39:20;26.00;;;9.17;;
7729;SDS011;3908;52.310;7.230;2023-05-27T03:42:07;20.90;;;7.23;;
7729;SDS011;3908;52.310;7.230;2023-05-27T03:44:54;15.57;;;6.70;;
7729;SDS011;3908;52.310;7.230;2023-05-27T03:47:40;19.47;;;6.70;;
7729;SDS011;3908;52.310;7.230;2023-05-27T03:50:27;23.77;;;7.17;;
7729;SDS011;3908;52.310;7.230;2023-05-27T03:53:15;14.13;;;6.13;;
7729;SDS011;3908;52.310;7.230;2023-05-27T03:56:02;14.90;;;5.83;;
7729;SDS011;3908;52.310;7.230;2023-05-27T03:58:49;12.50;;;6.17;;
7729;SDS011;3908;52.310;7.230;2023-05-27T04:01:36;14.37;;;5.30;;
7729;SDS011;3908;52.310;7.230;2023-05-27T04:04:23;10.90;;;5.13;;
7729;SDS011;3908;52.310;7.230;2023-05-27T04:07:09;25.90;;;6.13;;
7729;SDS011;3908;52.310;7.230;2023-05-27T04:09:59;16.90;;;6.63;;
7729;SDS011;3908;52.310;7.230;2023-05-27T04:12:46;10.30;;;5.00;;
7729;SDS011;3908;52.310;7.230;2023-05-27T04:15:33;11.77;;;5.30;;
7729;SDS011;3908;52.310;7.230;2023-05-27T04:18:20;19.97;;;5.10;;
7729;SDS011;3908;52.310;7.230;2023-05-27T04:21:07;12.97;;;5.30;;
7729;SDS011;3908;52.310;7.230;2023-05-27T04:23:54;12.73;;;4.93;;
7729;SDS011;3908;52.310;7.230;2023-05-27T04:26:42;16.57;;;6.07;;
7729;SDS011;3908;52.310;7.230;2023-05-27T04:29:30;18.03;;;5.70;;
7729;SDS011;3908;52.310;7.230;2023-05-27T04:32:17;19.03;;;5.70;;
7729;SDS011;3908;52.310;7.230;2023-05-27T04:35:06;23.83;;;7.63;;
7729;SDS011;3908;52.310;7.230;2023-05-27T04:37:54;20.73;;;6.10;;
7729;SDS011;3908;52.310;7.230;2023-05-27T04:40:41;14.73;;;6.47;;
7729;SDS011;3908;52.310;7.230;2023-05-27T04:43:29;13.20;;;5.17;;
7729;SDS011;3908;52.310;7.230;2023-05-27T04:46:16;13.43;;;5.43;;
7729;SDS011;3908;52.310;7.230;2023-05-27T04:49:03;20.43;;;7.23;;
7729;SDS011;3908;52.310;7.230;2023-05-27T04:51:50;20.93;;;7.77;;
7729;SDS011;3908;52.310;7.230;2023-05-27T04:54:36;17.60;;;8.10;;
7729;SDS011;3908;52.310;7.230;2023-05-27T04:57:23;21.00;;;7.80;;
7729;SDS011;3908;52.310;7.230;2023-05-27T05:00:14;16.30;;;7.30;;
7729;SDS011;3908;52.310;7.230;2023-05-27T05:03:21;16.33;;;6.87;;
7729;SDS011;3908;52.310;7.230;2023-05-27T05:06:22;17.80;;;7.00;;
7729;SDS011;3908;52.310;7.230;2023-05-27T05:09:08;20.67;;;7.50;;
7729;SDS011;3908;52.310;7.230;2023-05-27T05:11:57;29.53;;;7.80;;
7729;SDS011;3908;52.310;7.230;2023-05-27T05:14:43;19.17;;;7.23;;
7729;SDS011;3908;52.310;7.230;2023-05-27T05:17:32;20.43;;;7.50;;
7729;SDS011;3908;52.310;7.230;2023-05-27T05:20:18;17.53;;;7.07;;
7729;SDS011;3908;52.310;7.230;2023-05-27T05:23:07;22.77;;;6.70;;
7729;SDS011;3908;52.310;7.230;2023-05-27T05:25:54;25.47;;;7.10;;
7729;SDS011;3908;52.310;7.230;2023-05-27T05:28:43;21.33;;;5.80;;
7729;SDS011;3908;52.310;7.230;2023-05-27T05:31:30;17.67;;;6.13;;
7729;SDS011;3908;52.310;7.230;2023-05-27T05:34:18;19.67;;;4.97;;
7729;SDS011;3908;52.310;7.230;2023-05-27T05:37:05;21.77;;;5.53;;
7729;SDS011;3908;52.310;7.230;2023-05-27T05:39:53;23.97;;;5.27;;
7729;SDS011;3908;52.310;7.230;2023-05-27T05:42:40;19.70;;;5.87;;
7729;SDS011;3908;52.310;7.230;2023-05-27T05:45:27;15.30;;;5.73;;
7729;SDS011;3908;52.310;7.230;2023-05-27T05:48:14;14.70;;;5.60;;
7729;SDS011;3908;52.310;7.230;2023-05-27T05:51:02;15.23;;;5.60;;
7729;SDS011;3908;52.310;7.230;2023-05-27T05:53:49;16.50;;;5.77;;
7729;SDS011;3908;52.310;7.230;2023-05-27T05:56:35;18.23;;;5.90;;
7729;SDS011;3908;52.310;7.230;2023-05-27T05:59:22;17.67;;;5.13;;
7729;SDS011;3908;52.310;7.230;2023-05-27T06:02:09;22.87;;;5.93;;
7729;SDS011;3908;52.310;7.230;2023-05-27T06:04:56;17.57;;;5.13;;
7729;SDS011;3908;52.310;7.230;2023-05-27T06:07:44;17.23;;;5.40;;
7729;SDS011;3908;52.310;7.230;2023-05-27T06:10:32;19.70;;;5.03;;
7729;SDS011;3908;52.310;7.230;2023-05-27T06:13:18;14.33;;;5.60;;
7729;SDS011;3908;52.310;7.230;2023-05-27T06:16:05;22.23;;;5.77;;
7729;SDS011;3908;52.310;7.230;2023-05-27T06:18:52;14.60;;;5.03;;
7729;SDS011;3908;52.310;7.230;2023-05-27T06:21:39;21.53;;;5.87;;
7729;SDS011;3908;52.310;7.230;2023-05-27T06:24:28;15.67;;;5.17;;
7729;SDS011;3908;52.310;7.230;2023-05-27T06:27:15;14.03;;;4.90;;
7729;SDS011;3908;52.310;7.230;2023-05-27T06:30:02;15.07;;;4.50;;
7729;SDS011;3908;52.310;7.230;2023-05-27T06:32:49;17.33;;;4.93;;
7729;SDS011;3908;52.310;7.230;2023-05-27T06:35:35;17.33;;;5.20;;
7729;SDS011;3908;52.310;7.230;2023-05-27T06:38:22;14.60;;;4.70;;
7729;SDS011;3908;52.310;7.230;2023-05-27T06:41:11;15.27;;;5.30;;
7729;SDS011;3908;52.310;7.230;2023-05-27T06:43:57;24.33;;;5.50;;
7729;SDS011;3908;52.310;7.230;2023-05-27T06:46:44;16.67;;;4.67;;
7729;SDS011;3908;52.310;7.230;2023-05-27T06:49:31;19.93;;;5.87;;
7729;SDS011;3908;52.310;7.230;2023-05-27T06:52:17;21.67;;;5.20;;
7729;SDS011;3908;52.310;7.230;2023-05-27T06:55:05;17.17;;;5.70;;
7729;SDS011;3908;52.310;7.230;2023-05-27T06:57:53;15.27;;;5.07;;
7729;SDS011;3908;52.310;7.230;2023-05-27T07:00:40;16.20;;;5.07;;
7729;SDS011;3908;52.310;7.230;2023-05-27T07:03:26;18.40;;;5.03;;
7729;SDS011;3908;52.310;7.230;2023-05-27T07:06:13;14.97;;;5.70;;
7729;SDS011;3908;52.310;7.230;2023-05-27T07:09:00;18.70;;;5.47;;
7729;SDS011;3908;52.310;7.230;2023-05-27T07:11:47;18.43;;;5.37;;
7729;SDS011;3908;52.310;7.230;2023-05-27T07:14:35;20.90;;;5.20;;
7729;SDS011;3908;52.310;7.230;2023-05-27T07:17:22;17.63;;;5.40;;
7729;SDS011;3908;52.310;7.230;2023-05-27T07:20:09;20.83;;;5.70;;
7729;SDS011;3908;52.310;7.230;2023-05-27T07:22:56;18.53;;;6.17;;
7729;SDS011;3908;52.310;7.230;2023-05-27T07:25:43;15.57;;;5.40;;
7729;SDS011;3908;52.310;7.230;2023-05-27T07:28:30;18.00;;;5.07;;
7729;SDS011;3908;52.310;7.230;2023-05-27T07:31:19;14.03;;;5.10;;
7729;SDS011;3908;52.310;7.230;2023-05-27T07:34:06;14.17;;;4.53;;
7729;SDS011;3908;52.310;7.230;2023-05-27T07:36:52;20.73;;;6.63;;
7729;SDS011;3908;52.310;7.230;2023-05-27T07:39:39;14.27;;;5.30;;
7729;SDS011;3908;52.310;7.230;2023-05-27T07:42:26;15.90;;;5.20;;
7729;SDS011;3908;52.310;7.230;2023-05-27T07:45:13;15.23;;;5.07;;
7729;SDS011;3908;52.310;7.230;2023-05-27T07:48:01;17.83;;;5.63;;
7729;SDS011;3908;52.310;7.230;2023-05-27T07:50:48;16.90;;;5.10;;
7729;SDS011;3908;52.310;7.230;2023-05-27T07:53:35;15.70;;;5.03;;
7729;SDS011;3908;52.310;7.230;2023-05-27T07:56:22;16.83;;;5.53;;
7729;SDS011;3908;52.310;7.230;2023-05-27T07:59:09;19.83;;;5.47;;
7729;SDS011;3908;52.310;7.230;2023-05-27T08:01:55;13.67;;;5.23;;
7729;SDS011;3908;52.310;7.230;2023-05-27T08:04:44;19.57;;;6.20;;
7729;SDS011;3908;52.310;7.230;2023-05-27T08:07:30;15.30;;;5.07;;
7729;SDS011;3908;52.310;7.230;2023-05-27T08:10:17;14.13;;;5.40;;
7729;SDS011;3908;52.310;7.230;2023-05-27T08:13:04;17.30;;;5.33;;
7729;SDS011;3908;52.310;7.230;2023-05-27T08:15:51;20.20;;;5.77;;
7729;SDS011;3908;52.310;7.230;2023-05-27T08:18:38;12.13;;;4.70;;
7729;SDS011;3908;52.310;7.230;2023-05-27T08:21:26;16.40;;;6.20;;
7729;SDS011;3908;52.310;7.230;2023-05-27T08:24:12;11.77;;;5.57;;
7729;SDS011;3908;52.310;7.230;2023-05-27T08:27:00;17.67;;;5.47;;
7729;SDS011;3908;52.310;7.230;2023-05-27T08:29:48;13.20;;;5.30;;
7729;SDS011;3908;52.310;7.230;2023-05-27T08:32:34;12.47;;;4.87;;
7729;SDS011;3908;52.310;7.230;2023-05-27T08:35:21;13.37;;;4.70;;
7729;SDS011;3908;52.310;7.230;2023-05-27T08:38:09;12.50;;;4.90;;
7729;SDS011;3908;52.310;7.230;2023-05-27T08:40:56;15.83;;;5.53;;
7729;SDS011;3908;52.310;7.230;2023-05-27T08:43:44;16.43;;;5.07;;
7729;SDS011;3908;52.310;7.230;2023-05-27T08:46:31;20.60;;;5.63;;
7729;SDS011;3908;52.310;7.230;2023-05-27T08:49:18;19.17;;;5.67;;
7729;SDS011;3908;52.310;7.230;2023-05-27T08:52:05;19.73;;;5.13;;
7729;SDS011;3908;52.310;7.230;2023-05-27T08:54:54;13.60;;;5.00;;
7729;SDS011;3908;52.310;7.230;2023-05-27T08:57:43;13.23;;;5.37;;
7729;SDS011;3908;52.310;7.230;2023-05-27T09:00:30;13.97;;;4.57;;
7729;SDS011;3908;52.310;7.230;2023-05-27T09:03:17;18.08;;;5.43;;
7729;SDS011;3908;52.310;7.230;2023-05-27T09:06:04;21.17;;;6.28;;
7729;SDS011;3908;52.310;7.230;2023-05-27T09:08:51;15.57;;;4.63;;
7729;SDS011;3908;52.310;7.230;2023-05-27T09:15:03;12.23;;;5.28;;
7729;SDS011;3908;52.310;7.230;2023-05-27T09:17:50;14.82;;;5.30;;
7729;SDS011;3908;52.310;7.230;2023-05-27T09:20:37;16.15;;;5.05;;
7729;SDS011;3908;52.310;7.230;2023-05-27T09:23:23;16.05;;;5.40;;
7729;SDS011;3908;52.310;7.230;2023-05-27T09:26:11;15.80;;;4.63;;
7729;SDS011;3908;52.310;7.230;2023-05-27T09:28:58;11.27;;;4.90;;
7729;SDS011;3908;52.310;7.230;2023-05-27T09:31:52;15.55;;;4.78;;
7729;SDS011;3908;52.310;7.230;2023-05-27T09:34:40;13.32;;;4.68;;
7729;SDS011;3908;52.310;7.230;2023-05-27T09:37:27;11.15;;;4.88;;
7729;SDS011;3908;52.310;7.230;2023-05-27T09:40:17;17.80;;;5.05;;
7729;SDS011;3908;52.310;7.230;2023-05-27T09:43:05;13.35;;;4.40;;
7729;SDS011;3908;52.310;7.230;2023-05-27T09:45:52;16.10;;;4.80;;
7729;SDS011;3908;52.310;7.230;2023-05-27T09:48:40;14.95;;;5.05;;
7729;SDS011;3908;52.310;7.230;2023-05-27T09:51:27;14.38;;;4.88;;
7729;SDS011;3908;52.310;7.230;2023-05-27T09:54:17;14.43;;;5.63;;
7729;SDS011;3908;52.310;7.230;2023-05-27T09:57:04;14.00;;;5.28;;
7729;SDS011;3908;52.310;7.230;2023-05-27T09:59:52;19.00;;;5.13;;
7729;SDS011;3908;52.310;7.230;2023-05-27T10:02:39;15.70;;;5.15;;
7729;SDS011;3908;52.310;7.230;2023-05-27T10:05:28;14.38;;;5.18;;
7729;SDS011;3908;52.310;7.230;2023-05-27T10:08:15;13.00;;;5.20;;
7729;SDS011;3908;52.310;7.230;2023-05-27T10:11:02;16.52;;;4.97;;
7729;SDS011;3908;52.310;7.230;2023-05-27T10:13:49;16.23;;;4.78;;
7729;SDS011;3908;52.310;7.230;2023-05-27T10:16:36;14.15;;;4.90;;
7729;SDS011;3908;52.310;7.230;2023-05-27T10:19:23;15.32;;;4.78;;
7729;SDS011;3908;52.310;7.230;2023-05-27T10:22:11;9.52;;;4.55;;
7729;SDS011;3908;52.310;7.230;2023-05-27T10:25:06;11.27;;;4.57;;
7729;SDS011;3908;52.310;7.230;2023-05-27T10:27:52;13.23;;;5.18;;
7729;SDS011;3908;52.310;7.230;2023-05-27T10:30:42;18.13;;;5.32;;
7729;SDS011;3908;52.310;7.230;2023-05-27T10:33:30;15.30;;;5.28;;
7729;SDS011;3908;52.310;7.230;2023-05-27T10:36:21;17.58;;;5.25;;
7729;SDS011;3908;52.310;7.230;2023-05-27T10:39:13;14.38;;;5.00;;
7729;SDS011;3908;52.310;7.230;2023-05-27T10:42:00;16.77;;;5.03;;
7729;SDS011;3908;52.310;7.230;2023-05-27T16:22:45;9.85;;;2.92;;
7729;SDS011;3908;52.310;7.230;2023-05-27T16:25:32;9.13;;;3.60;;
7729;SDS011;3908;52.310;7.230;2023-05-27T16:28:18;5.80;;;3.10;;
7729;SDS011;3908;52.310;7.230;2023-05-27T16:31:04;7.45;;;3.13;;
7729;SDS011;3908;52.310;7.230;2023-05-27T16:33:51;10.05;;;3.40;;
7729;SDS011;3908;52.310;7.230;2023-05-27T16:36:38;9.30;;;3.40;;
7729;SDS011;3908;52.310;7.230;2023-05-27T16:39:26;10.75;;;3.63;;
7729;SDS011;3908;52.310;7.230;2023-05-27T16:42:13;9.60;;;3.30;;
7729;SDS011;3908;52.310;7.230;2023-05-27T16:45:00;10.07;;;3.53;;
7729;SDS011;3908;52.310;7.230;2023-05-27T16:47:47;8.90;;;3.55;;
7729;SDS011;3908;52.310;7.230;2023-05-27T16:50:34;10.50;;;3.10;;
7729;SDS011;3908;52.310;7.230;2023-05-27T16:53:21;11.95;;;3.33;;
7729;SDS011;3908;52.310;7.230;2023-05-27T16:56:09;7.57;;;3.08;;
7729;SDS011;3908;52.310;7.230;2023-05-27T16:58:56;10.82;;;3.25;;
7729;SDS011;3908;52.310;7.230;2023-05-27T17:01:43;13.02;;;3.80;;
7729;SDS011;3908;52.310;7.230;2023-05-27T17:04:30;8.70;;;3.08;;
7729;SDS011;3908;52.310;7.230;2023-05-27T17:07:16;6.55;;;3.10;;
7729;SDS011;3908;52.310;7.230;2023-05-27T17:10:04;7.70;;;3.90;;
7729;SDS011;3908;52.310;7.230;2023-05-27T17:12:52;7.72;;;3.13;;
7729;SDS011;3908;52.310;7.230;2023-05-27T17:15:39;7.50;;;2.83;;
7729;SDS011;3908;52.310;7.230;2023-05-27T17:18:27;8.60;;;3.65;;
7729;SDS011;3908;52.310;7.230;2023-05-27T17:21:13;7.05;;;3.03;;
7729;SDS011;3908;52.310;7.230;2023-05-27T17:24:00;6.20;;;2.85;;
7729;SDS011;3908;52.310;7.230;2023-05-27T17:26:47;8.25;;;2.90;;
7729;SDS011;3908;52.310;7.230;2023-05-27T17:29:35;5.68;;;3.05;;
7729;SDS011;3908;52.310;7.230;2023-05-27T17:32:22;8.93;;;3.47;;
7729;SDS011;3908;52.310;7.230;2023-05-27T17:35:10;7.70;;;3.47;;
7729;SDS011;3908;52.310;7.230;2023-05-27T17:37:56;6.70;;;3.45;;
7729;SDS011;3908;52.310;7.230;2023-05-27T17:40:43;8.50;;;3.78;;
7729;SDS011;3908;52.310;7.230;2023-05-27T17:43:30;5.82;;;2.95;;
7729;SDS011;3908;52.310;7.230;2023-05-27T17:46:18;6.93;;;3.13;;
7729;SDS011;3908;52.310;7.230;2023-05-27T17:49:05;9.25;;;3.78;;
7729;SDS011;3908;52.310;7.230;2023-05-27T17:51:52;10.50;;;3.83;;
7729;SDS011;3908;52.310;7.230;2023-05-27T17:54:39;5.53;;;2.85;;
7729;SDS011;3908;52.310;7.230;2023-05-27T17:57:26;5.85;;;3.10;;
7729;SDS011;3908;52.310;7.230;2023-05-27T18:00:14;5.53;;;2.90;;
7729;SDS011;3908;52.310;7.230;2023-05-27T18:03:02;7.28;;;2.80;;
7729;SDS011;3908;52.310;7.230;2023-05-27T18:05:50;8.52;;;2.92;;
7729;SDS011;3908;52.310;7.230;2023-05-27T18:08:37;11.25;;;3.20;;
7729;SDS011;3908;52.310;7.230;2023-05-27T18:11:25;6.03;;;2.80;;
7729;SDS011;3908;52.310;7.230;2023-05-27T18:14:12;9.57;;;3.10;;
7729;SDS011;3908;52.310;7.230;2023-05-27T18:17:00;8.50;;;3.15;;
7729;SDS011;3908;52.310;7.230;2023-05-27T18:19:48;5.47;;;3.00;;
7729;SDS011;3908;52.310;7.230;2023-05-27T18:22:35;9.80;;;3.38;;
7729;SDS011;3908;52.310;7.230;2023-05-27T18:25:22;10.65;;;3.55;;
7729;SDS011;3908;52.310;7.230;2023-05-27T18:28:09;5.72;;;2.97;;
7729;SDS011;3908;52.310;7.230;2023-05-27T18:30:56;7.75;;;3.20;;
7729;SDS011;3908;52.310;7.230;2023-05-27T18:33:42;8.63;;;3.42;;
7729;SDS011;3908;52.310;7.230;2023-05-27T18:36:31;6.35;;;3.00;;
7729;SDS011;3908;52.310;7.230;2023-05-27T18:39:17;7.30;;;3.17;;
7729;SDS011;3908;52.310;7.230;2023-05-27T18:42:04;7.27;;;3.03;;
7729;SDS011;3908;52.310;7.230;2023-05-27T18:44:52;6.90;;;3.13;;
7729;SDS011;3908;52.310;7.230;2023-05-27T18:47:39;7.07;;;2.90;;
7729;SDS011;3908;52.310;7.230;2023-05-27T18:50:26;5.23;;;3.03;;
7729;SDS011;3908;52.310;7.230;2023-05-27T18:53:14;6.67;;;3.73;;
7729;SDS011;3908;52.310;7.230;2023-05-27T18:56:01;7.43;;;3.03;;
7729;SDS011;3908;52.310;7.230;2023-05-27T18:58:47;6.23;;;3.53;;
7729;SDS011;3908;52.310;7.230;2023-05-27T19:01:34;5.30;;;2.90;;
7729;SDS011;3908;52.310;7.230;2023-05-27T19:04:22;5.80;;;3.23;;
7729;SDS011;3908;52.310;7.230;2023-05-27T19:07:09;7.20;;;3.70;;
7729;SDS011;3908;52.310;7.230;2023-05-27T19:09:57;5.70;;;2.57;;
7729;SDS011;3908;52.310;7.230;2023-05-27T19:12:43;4.53;;;2.90;;
7729;SDS011;3908;52.310;7.230;2023-05-27T19:15:31;5.97;;;3.13;;
7729;SDS011;3908;52.310;7.230;2023-05-27T19:18:17;10.35;;;3.42;;
7729;SDS011;3908;52.310;7.230;2023-05-27T19:21:04;5.50;;;3.13;;
7729;SDS011;3908;52.310;7.230;2023-05-27T19:23:51;7.37;;;3.17;;
7729;SDS011;3908;52.310;7.230;2023-05-27T19:26:39;8.20;;;3.37;;
7729;SDS011;3908;52.310;7.230;2023-05-27T19:29:26;6.50;;;2.93;;
7729;SDS011;3908;52.310;7.230;2023-05-27T19:32:13;10.70;;;3.33;;
7729;SDS011;3908;52.310;7.230;2023-05-27T19:35:01;6.30;;;3.20;;
7729;SDS011;3908;52.310;7.230;2023-05-27T19:37:47;9.67;;;3.53;;
7729;SDS011;3908;52.310;7.230;2023-05-27T19:40:34;8.20;;;3.17;;
7729;SDS011;3908;52.310;7.230;2023-05-27T19:43:22;11.77;;;3.10;;
7729;SDS011;3908;52.310;7.230;2023-05-27T19:46:09;6.57;;;3.00;;
7729;SDS011;3908;52.310;7.230;2023-05-27T19:48:57;7.97;;;3.13;;
7729;SDS011;3908;52.310;7.230;2023-05-27T19:51:43;5.93;;;2.83;;
7729;SDS011;3908;52.310;7.230;2023-05-27T19:54:30;4.73;;;3.13;;
7729;SDS011;3908;52.310;7.230;2023-05-27T19:57:17;7.97;;;3.40;;
7729;SDS011;3908;52.310;7.230;2023-05-27T20:00:06;6.67;;;3.73;;
7729;SDS011;3908;52.310;7.230;2023-05-27T20:02:54;9.00;;;3.73;;
7729;SDS011;3908;52.310;7.230;2023-05-27T20:05:41;9.63;;;3.40;;
7729;SDS011;3908;52.310;7.230;2023-05-27T20:08:28;10.27;;;3.37;;
7729;SDS011;3908;52.310;7.230;2023-05-27T20:11:15;10.40;;;3.53;;
7729;SDS011;3908;52.310;7.230;2023-05-27T20:14:01;11.20;;;3.53;;
7729;SDS011;3908;52.310;7.230;2023-05-27T20:17:04;7.83;;;2.93;;
7729;SDS011;3908;52.310;7.230;2023-05-27T20:20:05;5.70;;;3.13;;
7729;SDS011;3908;52.310;7.230;2023-05-27T20:23:06;7.27;;;2.90;;
7729;SDS011;3908;52.310;7.230;2023-05-27T20:25:55;5.20;;;3.00;;
7729;SDS011;3908;52.310;7.230;2023-05-27T20:28:56;11.40;;;3.50;;
7729;SDS011;3908;52.310;7.230;2023-05-27T20:31:43;7.60;;;3.30;;
7729;SDS011;3908;52.310;7.230;2023-05-27T20:34:45;8.97;;;3.67;;
7729;SDS011;3908;52.310;7.230;2023-05-27T20:37:33;9.17;;;3.47;;
7729;SDS011;3908;52.310;7.230;2023-05-27T20:40:20;8.37;;;3.67;;
7729;SDS011;3908;52.310;7.230;2023-05-27T20:43:21;5.53;;;3.30;;
7729;SDS011;3908;52.310;7.230;2023-05-27T20:46:08;8.50;;;3.63;;
7729;SDS011;3908;52.310;7.230;2023-05-27T20:48:55;7.57;;;3.73;;
7729;SDS011;3908;52.310;7.230;2023-05-27T21:10:03;8.67;;;3.50;;
7729;SDS011;3908;52.310;7.230;2023-05-27T21:12:50;9.67;;;4.27;;
7729;SDS011;3908;52.310;7.230;2023-05-27T21:15:36;7.23;;;3.33;;
7729;SDS011;3908;52.310;7.230;2023-05-27T21:18:23;5.30;;;3.40;;
7729;SDS011;3908;52.310;7.230;2023-05-27T21:21:10;8.77;;;3.80;;
7729;SDS011;3908;52.310;7.230;2023-05-27T21:23:57;6.87;;;3.50;;
7729;SDS011;3908;52.310;7.230;2023-05-27T21:26:46;6.30;;;3.87;;
7729;SDS011;3908;52.310;7.230;2023-05-27T21:29:33;8.80;;;3.50;;
7729;SDS011;3908;52.310;7.230;2023-05-27T21:32:20;5.93;;;3.70;;
7729;SDS011;3908;52.310;7.230;2023-05-27T21:35:08;10.03;;;3.90;;
7729;SDS011;3908;52.310;7.230;2023-05-27T21:37:55;6.27;;;4.30;;
7729;SDS011;3908;52.310;7.230;2023-05-27T21:40:42;8.10;;;3.83;;
7729;SDS011;3908;52.310;7.230;2023-05-27T21:43:30;7.63;;;3.57;;
7729;SDS011;3908;52.310;7.230;2023-05-27T21:46:17;5.90;;;3.43;;
7729;SDS011;3908;52.310;7.230;2023-05-27T21:49:03;10.83;;;4.33;;
7729;SDS011;3908;52.310;7.230;2023-05-27T21:51:51;8.17;;;3.80;;
7729;SDS011;3908;52.310;7.230;2023-05-27T21:54:38;6.70;;;3.87;;
7729;SDS011;3908;52.310;7.230;2023-05-27T21:57:24;6.23;;;4.00;;
7729;SDS011;3908;52.310;7.230;2023-05-27T22:00:14;7.00;;;3.87;;
7729;SDS011;3908;52.310;7.230;2023-05-27T22:03:03;5.60;;;3.60;;
7729;SDS011;3908;52.310;7.230;2023-05-27T22:05:50;7.20;;;3.77;;
7729;SDS011;3908;52.310;7.230;2023-05-27T22:08:37;7.43;;;4.07;;
7729;SDS011;3908;52.310;7.230;2023-05-27T22:11:23;8.23;;;4.17;;
7729;SDS011;3908;52.310;7.230;2023-05-27T22:14:11;9.70;;;4.00;;
7729;SDS011;3908;52.310;7.230;2023-05-27T22:16:59;9.57;;;3.70;;
7729;SDS011;3908;52.310;7.230;2023-05-27T22:19:46;6.40;;;3.93;;
7729;SDS011;3908;52.310;7.230;2023-05-27T22:22:33;10.27;;;4.30;;
7729;SDS011;3908;52.310;7.230;2023-05-27T22:25:20;8.50;;;3.90;;
7729;SDS011;3908;52.310;7.230;2023-05-27T22:28:06;14.03;;;3.97;;
7729;SDS011;3908;52.310;7.230;2023-05-27T22:30:53;10.50;;;4.40;;
7729;SDS011;3908;52.310;7.230;2023-05-27T22:33:41;9.27;;;4.30;;
7729;SDS011;3908;52.310;7.230;2023-05-27T22:36:28;7.53;;;4.60;;
7729;SDS011;3908;52.310;7.230;2023-05-27T22:39:15;8.07;;;4.30;;
7729;SDS011;3908;52.310;7.230;2023-05-27T22:42:02;7.40;;;4.23;;
7729;SDS011;3908;52.310;7.230;2023-05-27T22:44:49;8.07;;;4.30;;
7729;SDS011;3908;52.310;7.230;2023-05-27T22:47:36;9.23;;;4.97;;
7729;SDS011;3908;52.310;7.230;2023-05-27T22:50:25;9.27;;;4.97;;
7729;SDS011;3908;52.310;7.230;2023-05-27T22:53:12;9.17;;;5.17;;
7729;SDS011;3908;52.310;7.230;2023-05-27T22:55:59;8.27;;;4.90;;
7729;SDS011;3908;52.310;7.230;2023-05-27T22:58:45;16.63;;;5.03;;
7729;SDS011;3908;52.310;7.230;2023-05-27T23:01:32;10.57;;;5.10;;
7729;SDS011;3908;52.310;7.230;2023-05-27T23:04:19;8.37;;;4.53;;
7729;SDS011;3908;52.310;7.230;2023-05-27T23:07:07;10.47;;;5.23;;
7729;SDS011;3908;52.310;7.230;2023-05-27T23:09:54;10.47;;;4.70;;